Time;durP1;ratioP1;P1;durP2;ratioP2;P2;SDS_P1;SDS_P2;PMS_P1;PMS_P2;Temp;Humidity;BMP_temperature;BMP_pressure;BME280_temperature;BME280_humidity;BME280_pressure;Samples;Min_cycle;Max_cycle;Signal;HPM_P1;HPM_P2
2022/12/15 00:41:06;;;;;;;3.33;0.80;;;-2.30;99.90;;;;;;4992842;28;20062;-84
2022/12/15 00:44:36;;;;;;;1.58;0.60;;;-2.20;99.90;;;;;;4993266;28;20156;-84
2022/12/15 00:47:54;;;;;;;0.60;0.45;;;-2.20;99.90;;;;;;5078223;28;20443;-84
2022/12/15 00:51:08;;;;;;;0.52;0.50;;;-2.20;99.90;;;;;;5093239;28;20113;-83
2022/12/15 01:21:36;;;;;;;0.68;0.40;;;-2.10;99.90;;;;;;5009789;28;20046;-83
2022/12/15 01:24:42;;;;;;;1.58;0.50;;;-2.10;99.90;;;;;;5017176;28;20160;-83
2022/12/15 01:28:12;;;;;;;;;;;;;;;;;;;;;
2022/12/15 01:31:42;;;;;;;2.00;0.70;;;-2.00;99.90;;;;;;5012121;28;20058;-82
2022/12/15 01:35:00;;;;;;;3.90;0.80;;;-2.00;99.90;;;;;;5011823;28;20053;-83
2022/12/15 01:38:16;;;;;;;;;;;;;;;;;;;;;
2022/12/15 01:41:50;;;;;;;;;;;;;;;;;;;;;
2022/12/15 01:45:26;;;;;;;3.72;0.95;;;-2.00;99.90;;;;;;4962705;28;20138;-84
2022/12/15 01:48:50;;;;;;;;;;;;;;;;;;;;;
2022/12/15 01:52:14;;;;;;;0.82;0.50;;;-2.00;99.90;;;;;;4934091;29;20563;-83
2022/12/15 01:55:32;;;;;;;1.67;0.50;;;-2.10;99.90;;;;;;4926794;29;20549;-82
2022/12/15 01:58:56;;;;;;;0.80;0.45;;;-2.10;99.90;;;;;;4904119;29;20128;-83
2022/12/15 02:02:19;;;;;;;;;;;;;;;;;;;;;
2022/12/15 02:05:34;;;;;;;1.02;0.63;;;-2.10;99.90;;;;;;4895999;29;20040;-83
2022/12/15 02:08:48;;;;;;;1.00;0.50;;;-2.10;99.90;;;;;;4880214;29;20063;-83
2022/12/15 02:12:08;;;;;;;1.35;0.63;;;-2.10;99.90;;;;;;4895495;29;20135;-83
2022/12/15 02:15:48;;;;;;;2.17;0.52;;;-2.10;99.90;;;;;;4895797;29;20048;-84
2022/12/15 02:19:15;;;;;;;2.25;0.73;;;-2.10;99.90;;;;;;4922592;29;20059;-83
2022/12/15 02:23:20;;;;;;;;;;;;;;;;;;;;;
2022/12/15 02:26:52;;;;;;;;;;;;;;;;;;;;;
2022/12/15 02:30:32;;;;;;;1.90;0.60;;;-2.10;99.90;;;;;;5027990;28;20564;-83
2022/12/15 02:34:10;;;;;;;2.53;0.70;;;-2.10;99.90;;;;;;5035356;28;20049;-83
2022/12/15 02:37:38;;;;;;;2.65;0.70;;;-2.10;99.90;;;;;;5050778;28;20052;-84
2022/12/15 02:41:30;;;;;;;4.68;0.65;;;-2.10;99.90;;;;;;5049188;28;20120;-83
2022/12/15 02:45:02;;;;;;;;;;;;;;;;;;;;;
2022/12/15 02:48:44;;;;;;;;;;;;;;;;;;;;;
2022/12/15 02:52:26;;;;;;;1.40;0.32;;;-1.80;99.90;;;;;;5027396;28;20460;-84
2022/12/15 02:55:58;;;;;;;3.28;0.40;;;-1.60;99.90;;;;;;5041735;28;20486;-84
2022/12/15 02:59:20;;;;;;;0.75;0.38;;;-1.60;99.90;;;;;;5034455;28;20133;-84
2022/12/15 03:02:51;;;;;;;1.88;0.40;;;-1.60;99.90;;;;;;5053617;28;20060;-83
2022/12/15 03:06:09;;;;;;;1.65;0.52;;;-1.50;99.90;;;;;;5056415;28;20040;-84
2022/12/15 03:08:54;;;;;;;;;;;;;;;;;;;;;
2022/12/15 03:12:16;;;;;;;1.45;0.60;;;-1.50;99.90;;;;;;5076458;28;20052;-84
2022/12/15 03:15:22;;;;;;;0.85;0.52;;;-1.50;99.90;;;;;;5075944;28;20036;-84
2022/12/15 03:18:46;;;;;;;0.98;0.30;;;-1.50;99.90;;;;;;5076098;28;20127;-83
2022/12/15 03:21:56;;;;;;;5.82;0.50;;;-1.60;99.90;;;;;;5074759;28;20501;-84
2022/12/15 03:24:57;;;;;;;;;;;;;;;;;;;;;
2022/12/15 03:28:12;;;;;;;2.85;0.65;;;-1.60;99.90;;;;;;5063186;28;20129;-83
2022/12/15 03:31:32;;;;;;;;;;;;;;;;;;;;;
2022/12/15 03:34:42;;;;;;;2.22;0.60;;;-1.90;99.90;;;;;;5075867;28;20044;-83
2022/12/15 03:37:47;;;;;;;0.50;0.43;;;-1.90;99.90;;;;;;5055045;28;20057;-83
2022/12/15 03:41:08;;;;;;;0.77;0.45;;;-1.90;99.90;;;;;;5055582;28;20059;-84
2022/12/15 03:44:16;;;;;;;1.50;0.47;;;-2.00;99.90;;;;;;5011730;28;20052;-83
2022/12/15 03:47:21;;;;;;;1.88;0.50;;;-2.00;99.90;;;;;;5019142;28;20534;-83
2022/12/15 03:50:18;;;;;;;1.55;0.43;;;-2.10;99.90;;;;;;5059113;28;20123;-83
2022/12/15 03:53:42;;;;;;;;;;;;;;;;;;;;;
2022/12/15 03:57:00;;;;;;;1.67;0.60;;;-2.20;99.90;;;;;;5013885;28;20454;-83
2022/12/15 04:00:12;;;;;;;;;;;;;;;;;;;;;
2022/12/15 04:02:52;;;;;;;1.55;0.50;;;-2.20;99.90;;;;;;4980700;28;20136;-84
2022/12/15 04:06:06;;;;;;;1.08;0.50;;;-2.20;99.90;;;;;;5011737;28;20054;-83
2022/12/15 04:09:30;;;;;;;1.40;0.60;;;-2.20;99.90;;;;;;5013412;28;20053;-84
2022/12/15 04:12:12;;;;;;;1.30;0.40;;;-2.30;99.90;;;;;;5013359;28;20132;-84
2022/12/15 04:15:18;;;;;;;;;;;;;;;;;;;;;
2022/12/15 04:18:35;;;;;;;1.92;0.43;;;-2.20;99.90;;;;;;5013473;28;20427;-85
2022/12/15 04:21:48;;;;;;;0.40;0.40;;;-2.20;99.90;;;;;;4996568;28;20403;-84
2022/12/15 05:33:46;;;;;;;1.35;0.63;;;-1.50;99.90;;;;;;5064158;28;20048;-83
2022/12/15 05:37:14;;;;;;;2.03;0.75;;;-1.50;99.90;;;;;;5093776;28;20052;-84
2022/12/15 05:40:38;;;;;;;;;;;;;;;;;;;;;
2022/12/15 05:43:46;;;;;;;0.73;0.50;;;-1.30;99.90;;;;;;5092367;28;20040;-84
2022/12/15 05:47:11;;;;;;;;;;;;;;;;;;;;;
2022/12/15 05:50:38;;;;;;;3.50;0.90;;;-1.20;99.90;;;;;;5051193;28;20055;-84
2022/12/15 05:54:12;;;;;;;;;;;;;;;;;;;;;
2022/12/15 05:57:32;;;;;;;2.42;0.90;;;-1.10;99.90;;;;;;5050908;28;20132;-83
2022/12/15 06:00:44;;;;;;;;;;;;;;;;;;;;;
2022/12/15 06:04:00;;;;;;;;;;;;;;;;;;;;;
2022/12/15 06:07:36;;;;;;;3.97;1.55;;;-1.10;99.90;;;;;;5051091;28;20053;-83
2022/12/15 06:10:30;;;;;;;5.20;1.25;;;-1.10;99.90;;;;;;5017683;28;20051;-83
2022/12/15 06:13:38;;;;;;;8.63;1.23;;;-1.00;99.90;;;;;;5050591;28;20108;-84
2022/12/15 06:16:56;;;;;;;4.18;1.45;;;-1.00;99.90;;;;;;5030191;28;20056;-83
2022/12/15 06:20:14;;;;;;;;;;;;;;;;;;;;;
2022/12/15 06:23:34;;;;;;;;;;;;;;;;;;;;;
2022/12/15 06:26:24;;;;;;;5.03;1.38;;;-1.10;99.90;;;;;;5092613;28;20075;-84
2022/12/15 06:29:40;;;;;;;;;;;;;;;;;;;;;
2022/12/15 06:32:53;;;;;;;4.30;1.00;;;-1.10;99.90;;;;;;5092479;28;20127;-83
2022/12/15 06:36:38;;;;;;;;;;;;;;;;;;;;;
2022/12/15 06:40:08;;;;;;;;;;;;;;;;;;;;;
2022/12/15 06:43:32;;;;;;;;;;;;;;;;;;;;;
2022/12/15 06:47:06;;;;;;;7.32;1.63;;;-1.10;99.90;;;;;;5073828;28;20520;-84
2022/12/15 06:50:24;;;;;;;;;;;;;;;;;;;;;
2022/12/15 06:53:49;;;;;;;;;;;;;;;;;;;;;
2022/12/15 06:57:14;;;;;;;5.97;1.45;;;-1.10;99.90;;;;;;5091769;28;20056;-86
2022/12/15 07:00:36;;;;;;;;;;;;;;;;;;;;;
2022/12/15 07:04:01;;;;;;;1.55;0.80;;;-1.10;99.90;;;;;;5031293;28;20128;-84
2022/12/15 07:06:44;;;;;;;2.60;0.80;;;-1.10;99.90;;;;;;5013818;28;20622;-84
2022/12/15 07:09:46;;;;;;;;;;;;;;;;;;;;;
2022/12/15 07:13:09;;;;;;;3.05;1.42;;;-1.00;99.90;;;;;;5030753;28;20133;-84
2022/12/15 07:16:05;;;;;;;3.00;1.45;;;-1.00;99.90;;;;;;5030634;28;20095;-85
2022/12/15 07:19:06;;;;;;;8.30;2.00;;;-0.90;99.90;;;;;;5032044;28;20534;-84
2022/12/15 07:22:22;;;;;;;5.68;2.15;;;-0.90;99.90;;;;;;5029779;28;20077;-85
2022/12/15 07:25:18;;;;;;;3.05;1.42;;;-0.90;99.90;;;;;;5030787;28;20057;-85
2022/12/15 07:28:29;;;;;;;5.63;1.92;;;-0.90;99.90;;;;;;5030440;28;20418;-86
2022/12/15 07:32:00;;;;;;;;;;;;;;;;;;;;;
2022/12/15 07:35:08;;;;;;;3.28;1.70;;;-0.90;99.90;;;;;;5006950;28;20119;-84
2022/12/15 07:38:32;;;;;;;;;;;;;;;;;;;;;
2022/12/15 07:41:39;;;;;;;5.55;1.90;;;-0.90;99.90;;;;;;5055550;28;20055;-84
2022/12/15 07:44:29;;;;;;;;;;;;;;;;;;;;;
2022/12/15 07:47:24;;;;;;;;;;;;;;;;;;;;;
2022/12/15 07:50:28;;;;;;;3.03;1.77;;;-0.80;99.90;;;;;;5036517;28;20143;-83
2022/12/15 07:53:27;;;;;;;7.38;2.30;;;-0.80;99.90;;;;;;5052394;28;20529;-85
2022/12/15 07:56:08;;;;;;;5.47;1.90;;;-0.70;99.90;;;;;;5054504;28;20108;-85
2022/12/15 07:59:16;;;;;;;;;;;;;;;;;;;;;
2022/12/15 08:02:22;;;;;;;;;;;;;;;;;;;;;
2022/12/15 08:05:41;;;;;;;7.72;1.65;;;-0.70;99.90;;;;;;5055330;28;20045;-85
2022/12/15 08:08:25;;;;;;;4.10;1.50;;;-0.70;99.90;;;;;;5055687;28;20106;-84
2022/12/15 08:11:32;;;;;;;;;;;;;;;;;;;;;
2022/12/15 08:14:51;;;;;;;3.95;1.20;;;-0.60;99.90;;;;;;5055176;28;20044;-84
2022/12/15 08:17:45;;;;;;;3.13;2.10;;;-0.60;99.90;;;;;;5054895;28;20037;-83
2022/12/15 08:21:12;;;;;;;;;;;;;;;;;;;;;
2022/12/15 08:24:35;;;;;;;4.50;1.75;;;-1.00;99.90;;;;;;5055077;28;20044;-83
2022/12/15 08:27:37;;;;;;;4.13;2.00;;;-0.50;99.90;;;;;;5037188;28;20461;-83
2022/12/15 08:30:43;;;;;;;6.00;2.28;;;-0.50;99.90;;;;;;5037274;28;20076;-83
2022/12/15 08:33:44;;;;;;;12.40;2.75;;;-0.40;99.90;;;;;;5055349;28;20053;-83
2022/12/15 08:36:44;;;;;;;4.95;2.10;;;-0.40;99.90;;;;;;5072637;28;20443;-82
2022/12/15 08:39:41;;;;;;;7.50;2.05;;;-0.30;99.90;;;;;;5072691;28;20048;-83
2022/12/15 08:42:35;;;;;;;3.67;1.85;;;0.30;99.90;;;;;;5071457;28;20455;-83
2022/12/15 08:45:36;;;;;;;6.45;2.35;;;-0.30;99.90;;;;;;5071518;28;20059;-83
2022/12/15 08:48:37;;;;;;;9.55;2.40;;;-0.30;99.90;;;;;;5054636;28;20052;-83
2022/12/15 08:51:35;;;;;;;10.48;2.83;;;-0.20;99.90;;;;;;5071686;28;20138;-83
2022/12/15 08:54:35;;;;;;;5.28;2.50;;;-0.20;99.90;;;;;;5072117;28;20052;-85
2022/12/15 08:57:46;;;;;;;6.57;2.53;;;-0.70;99.90;;;;;;5055720;28;20043;-85
2022/12/15 09:00:38;;;;;;;5.10;2.43;;;0.00;99.90;;;;;;5088612;28;20525;-85
2022/12/15 09:03:41;;;;;;;4.60;2.58;;;0.00;99.90;;;;;;5052350;28;20179;-86
2022/12/15 09:06:30;;;;;;;5.57;2.88;;;0.40;99.90;;;;;;5051174;28;20629;-83
2022/12/15 09:09:35;;;;;;;6.88;2.63;;;0.00;99.90;;;;;;5035266;28;20099;-83
2022/12/15 09:12:28;;;;;;;5.60;2.60;;;0.10;99.90;;;;;;5035053;28;20505;-84
2022/12/15 09:15:24;;;;;;;;;;;;;;;;;;;;;
2022/12/15 09:18:36;;;;;;;4.50;1.95;;;0.10;99.90;;;;;;5032049;28;20061;-82
2022/12/15 09:21:46;;;;;;;;;;;;;;;;;;;;;
2022/12/15 09:24:39;;;;;;;9.02;2.78;;;0.20;99.90;;;;;;5031393;28;20091;-83
2022/12/15 09:27:38;;;;;;;8.05;2.17;;;0.30;99.90;;;;;;5030545;28;20556;-83
2022/12/15 09:30:40;;;;;;;3.10;1.88;;;0.40;99.90;;;;;;5031792;28;20049;-83
2022/12/15 09:33:35;;;;;;;3.67;1.58;;;0.40;99.90;;;;;;5033017;28;20049;-83
2022/12/15 09:36:35;;;;;;;2.75;1.63;;;0.20;99.90;;;;;;5071479;28;20063;-83
2022/12/15 09:39:36;;;;;;;4.25;2.17;;;0.50;99.90;;;;;;5072414;28;20059;-83
2022/12/15 09:42:50;;;;;;;2.72;1.58;;;0.50;99.90;;;;;;5083013;28;20526;-83
2022/12/15 09:45:31;;;;;;;4.53;2.17;;;0.60;99.90;;;;;;5090420;28;20985;-83
2022/12/15 09:48:11;;;;;;;5.47;1.90;;;0.60;99.90;;;;;;5073933;28;20081;-83
2022/12/15 09:50:49;;;;;;;5.43;2.40;;;0.60;99.90;;;;;;5093407;28;20097;-83
2022/12/15 09:53:20;;;;;;;9.73;2.95;;;0.70;99.90;;;;;;5074859;28;20531;-84
2022/12/15 09:56:04;;;;;;;5.30;2.30;;;0.80;99.90;;;;;;5092897;28;20047;-83
2022/12/15 09:58:59;;;;;;;12.23;2.83;;;0.80;99.90;;;;;;5075295;28;20051;-83
2022/12/15 10:01:33;;;;;;;4.95;2.22;;;0.80;99.90;;;;;;5091270;28;20048;-83
2022/12/15 10:04:41;;;;;;;5.32;1.77;;;0.80;99.90;;;;;;5075829;28;20169;-84
2022/12/15 10:07:40;;;;;;;5.95;2.55;;;0.90;99.90;;;;;;5074945;28;20051;-82
2022/12/15 10:10:25;;;;;;;7.05;3.05;;;0.90;99.90;;;;;;5093354;28;20400;-84
2022/12/15 10:12:56;;;;;;;8.13;3.15;;;1.00;99.90;;;;;;5093438;28;20119;-84
2022/12/15 10:15:26;;;;;;;10.75;3.47;;;0.90;99.90;;;;;;5073868;28;20122;-83
2022/12/15 10:18:10;;;;;;;8.23;2.58;;;1.00;99.90;;;;;;5093096;28;20377;-82
2022/12/15 10:20:37;;;;;;;9.05;3.47;;;1.10;99.90;;;;;;5092893;28;20488;-83
2022/12/15 10:23:14;;;;;;;7.10;2.90;;;1.30;99.90;;;;;;5075404;28;20050;-83
2022/12/15 10:25:46;;;;;;;9.85;3.25;;;1.30;99.90;;;;;;5075377;28;20081;-83
2022/12/15 10:28:26;;;;;;;12.90;3.88;;;1.30;99.90;;;;;;5075212;28;20082;-84
2022/12/15 10:31:09;;;;;;;4.97;2.70;;;1.10;99.90;;;;;;5092105;28;20048;-84
2022/12/15 10:33:38;;;;;;;7.72;3.30;;;1.40;99.90;;;;;;5093033;28;20044;-84
2022/12/15 10:36:10;;;;;;;8.30;2.63;;;1.20;99.90;;;;;;5092677;28;20451;-82
2022/12/15 10:38:47;;;;;;;7.15;3.47;;;1.30;99.90;;;;;;5092386;28;20475;-84
2022/12/15 10:41:24;;;;;;;6.45;3.25;;;1.60;99.90;;;;;;5092759;28;20043;-83
2022/12/15 10:43:56;;;;;;;6.53;2.40;;;1.60;99.90;;;;;;5092692;28;20047;-84
2022/12/15 10:46:58;;;;;;;9.60;2.97;;;2.10;99.90;;;;;;5091454;28;20047;-83
2022/12/15 10:49:58;;;;;;;8.75;3.40;;;1.40;99.90;;;;;;5091367;28;20377;-83
2022/12/15 10:52:47;;;;;;;6.43;3.10;;;2.90;99.90;;;;;;5091609;28;20036;-83
2022/12/15 10:56:06;;;;;;;6.18;3.22;;;1.50;99.90;;;;;;5071343;28;20053;-84
2022/12/15 10:59:05;;;;;;;5.68;3.03;;;1.50;99.90;;;;;;5072709;28;20442;-83
2022/12/15 11:02:28;;;;;;;;;;;;;;;;;;;;;
2022/12/15 11:05:30;;;;;;;7.93;3.58;;;2.80;99.90;;;;;;5087905;28;20040;-83
2022/12/15 11:08:50;;;;;;;;;;;;;;;;;;;;;
2022/12/15 11:15:11;;;;;;;8.90;3.35;;;1.80;99.90;;;;;;5077924;28;20060;-85
2022/12/15 11:18:25;;;;;;;;;;;;;;;;;;;;;
2022/12/15 11:21:52;;;;;;;7.28;2.80;;;1.90;99.90;;;;;;5096168;28;20489;-86
2022/12/15 11:25:23;;;;;;;9.77;2.95;;;2.00;99.90;;;;;;4978394;28;20448;-81
2022/12/15 11:28:33;;;;;;;;;;;;;;;;;;;;;
2022/12/15 11:32:07;;;;;;;7.18;2.83;;;2.10;99.90;;;;;;4955953;29;20486;-85
2022/12/15 11:35:37;;;;;;;5.68;2.70;;;2.20;99.90;;;;;;4955687;28;20079;-85
2022/12/15 11:38:22;;;;;;;;;;;2.20;99.90;;;;;;4939619;29;20059;-85
2022/12/15 11:41:01;;;;;;;6.57;2.40;;;2.30;99.90;;;;;;4958981;28;19997;-87
2022/12/15 11:44:24;;;;;;;5.70;2.15;;;2.40;99.90;;;;;;4939723;29;20043;-86
2022/12/15 11:47:51;;;;;;;10.77;2.67;;;2.40;99.90;;;;;;4936465;29;20052;-85
2022/12/15 11:50:50;;;;;;;9.02;2.65;;;1.50;99.90;;;;;;4950907;29;20047;-87
2022/12/15 11:54:15;;;;;;;;;;;;;;;;;;;;;
2022/12/15 11:57:31;;;;;;;6.55;2.25;;;1.60;99.90;;;;;;4993667;28;20050;-85
2022/12/15 12:00:35;;;;;;;3.88;2.17;;;2.70;99.90;;;;;;5012498;28;20394;-84
2022/12/15 12:04:06;;;;;;;9.02;2.25;;;2.80;99.90;;;;;;5053656;28;20053;-85
2022/12/15 12:07:06;;;;;;;5.55;2.08;;;2.80;99.90;;;;;;5049554;28;20053;-86
2022/12/15 12:10:22;;;;;;;4.35;2.10;;;2.90;99.90;;;;;;5053248;28;20413;-86
2022/12/15 12:13:54;;;;;;;7.10;2.75;;;3.00;99.90;;;;;;5052812;28;20053;-87
2022/12/15 12:17:00;;;;;;;7.00;2.35;;;3.10;99.90;;;;;;5036656;28;20400;-86
2022/12/15 12:19:59;;;;;;;5.28;1.70;;;3.10;99.90;;;;;;5052076;28;20084;-88
2022/12/15 12:22:43;;;;;;;6.20;1.95;;;3.10;99.90;;;;;;5035699;28;20053;-85
2022/12/15 12:25:31;;;;;;;4.90;1.50;;;3.10;99.90;;;;;;5052412;28;20041;-88
2022/12/15 12:28:20;;;;;;;3.97;1.88;;;3.10;99.90;;;;;;5042106;28;20103;-86
2022/12/15 12:30:48;;;;;;;5.03;1.98;;;3.10;99.90;;;;;;5035459;28;20124;-85
2022/12/15 12:33:31;;;;;;;5.53;1.98;;;3.10;99.90;;;;;;5019873;28;20409;-85
2022/12/15 12:36:17;;;;;;;5.25;2.00;;;3.10;99.90;;;;;;5039368;28;20132;-85
2022/12/15 12:38:51;;;;;;;4.82;1.30;;;3.10;99.90;;;;;;5074593;28;20048;-86
2022/12/15 12:41:43;;;;;;;4.50;1.42;;;3.10;99.90;;;;;;5056605;28;20052;-86
2022/12/15 12:44:50;;;;;;;7.43;1.98;;;3.10;99.90;;;;;;5073988;28;20393;-84
2022/12/15 12:47:44;;;;;;;4.45;1.80;;;3.10;99.90;;;;;;5072688;28;20123;-85
2022/12/15 12:50:42;;;;;;;6.63;1.90;;;3.10;99.90;;;;;;5072483;28;20052;-86
2022/12/15 12:53:38;;;;;;;9.80;2.08;;;3.20;99.90;;;;;;5073918;28;20067;-88
2022/12/15 12:56:35;;;;;;;5.22;1.55;;;3.10;99.90;;;;;;5073471;28;20089;-85
2022/12/15 12:59:50;;;;;;;12.75;2.45;;;3.10;99.90;;;;;;5055522;28;20036;-85
2022/12/15 13:02:33;;;;;;;6.10;1.92;;;3.10;99.90;;;;;;5072963;28;20106;-84
2022/12/15 13:05:36;;;;;;;5.60;1.70;;;3.10;99.90;;;;;;5072976;28;20378;-84
2022/12/15 13:08:26;;;;;;;5.57;1.63;;;2.90;99.90;;;;;;5049986;28;20064;-85
2022/12/15 13:11:44;;;;;;;10.68;2.50;;;3.10;99.90;;;;;;5053225;28;20468;-86
2022/12/15 13:14:18;;;;;;;6.72;1.63;;;3.00;99.90;;;;;;5054801;28;20041;-84
2022/12/15 13:16:50;;;;;;;8.05;2.80;;;3.00;99.90;;;;;;5055326;28;20048;-85
2022/12/15 13:19:57;;;;;;;6.93;1.85;;;3.10;99.90;;;;;;5073444;28;20048;-84
2022/12/15 13:22:35;;;;;;;6.60;1.77;;;3.00;99.90;;;;;;5074176;28;20048;-86
2022/12/15 13:25:35;;;;;;;3.55;1.52;;;3.00;99.90;;;;;;5073066;28;20053;-85
2022/12/15 13:28:38;;;;;;;3.72;2.00;;;3.00;99.90;;;;;;5055489;28;20413;-85
2022/12/15 13:31:20;;;;;;;3.67;1.55;;;2.90;99.90;;;;;;5055540;28;20048;-84
2022/12/15 13:33:54;;;;;;;5.75;1.77;;;2.90;99.90;;;;;;5059306;28;20047;-86
2022/12/15 13:36:38;;;;;;;9.30;2.28;;;2.90;99.90;;;;;;5072767;28;20087;-85
2022/12/15 13:39:31;;;;;;;4.60;1.83;;;2.90;99.90;;;;;;5093357;28;20048;-85
2022/12/15 13:42:03;;;;;;;7.65;2.05;;;2.90;99.90;;;;;;4991094;28;20467;-85
2022/12/15 13:44:41;;;;;;;4.43;1.90;;;2.90;99.90;;;;;;4995340;28;20073;-87
2022/12/15 13:47:11;;;;;;;5.25;1.63;;;2.90;99.90;;;;;;5010856;28;20054;-85
2022/12/15 13:49:54;;;;;;;3.30;1.63;;;2.50;99.90;;;;;;5011261;28;20049;-84
2022/12/15 13:52:47;;;;;;;6.95;2.30;;;2.80;99.90;;;;;;4995313;28;20518;-85
2022/12/15 13:55:19;;;;;;;8.40;1.80;;;2.80;99.90;;;;;;4993447;28;20549;-85
2022/12/15 13:58:09;;;;;;;3.58;1.35;;;2.80;99.90;;;;;;4955705;28;20081;-85
2022/12/15 14:01:10;;;;;;;4.28;2.80;;;2.80;99.90;;;;;;4956462;28;20137;-85
2022/12/15 14:04:21;;;;;;;5.75;1.75;;;2.80;99.90;;;;;;4955661;28;20069;-84
2022/12/15 14:07:21;;;;;;;7.60;2.33;;;2.80;99.90;;;;;;4954675;28;20551;-86
2022/12/15 14:10:24;;;;;;;2.88;1.52;;;2.80;99.90;;;;;;4971456;28;20050;-85
2022/12/15 14:13:24;;;;;;;8.07;2.17;;;2.80;99.90;;;;;;4972176;28;20407;-87
2022/12/15 14:16:20;;;;;;;3.30;1.55;;;2.90;99.90;;;;;;4976365;28;20155;-84
2022/12/15 14:19:21;;;;;;;8.13;1.92;;;2.70;99.90;;;;;;5034157;28;20567;-85
2022/12/15 14:22:54;;;;;;;;;;;;;;;;;;;;;
2022/12/15 14:26:09;;;;;;;4.20;1.77;;;2.70;99.90;;;;;;5093278;28;20036;-87
2022/12/15 14:29:20;;;;;;;5.43;2.08;;;2.80;99.90;;;;;;5093213;28;20066;-86
2022/12/15 14:32:35;;;;;;;2.53;1.27;;;2.80;99.90;;;;;;5075684;28;20044;-86
2022/12/15 14:35:53;;;;;;;3.92;1.30;;;2.70;99.90;;;;;;5088621;28;20064;-85
2022/12/15 14:39:10;;;;;;;4.82;1.48;;;2.70;99.90;;;;;;5093007;28;20098;-85
2022/12/15 14:42:24;;;;;;;6.75;2.08;;;2.80;99.90;;;;;;5080035;28;20519;-85
2022/12/15 14:46:12;;;;;;;3.95;1.75;;;2.90;99.90;;;;;;5075288;28;20040;-83
2022/12/15 14:49:20;;;;;;;3.28;1.50;;;2.70;99.90;;;;;;4993377;28;20039;-85
2022/12/15 14:52:20;;;;;;;4.68;1.63;;;2.70;99.90;;;;;;4995002;28;20058;-85
2022/12/15 14:55:23;;;;;;;4.88;1.75;;;2.60;99.90;;;;;;4996998;28;20050;-85
2022/12/15 14:58:48;;;;;;;;;;;;;;;;;;;;;
2022/12/15 15:01:59;;;;;;;;;;;;;;;;;;;;;
2022/12/15 15:04:59;;;;;;;;;;;;;;;;;;;;;
2022/12/15 15:08:04;;;;;;;8.68;1.85;;;2.50;99.90;;;;;;4993924;28;20114;-84
2022/12/15 15:11:06;;;;;;;3.70;1.75;;;2.60;99.90;;;;;;4993289;28;20046;-84
2022/12/15 15:14:04;;;;;;;6.38;1.75;;;2.50;99.90;;;;;;4995192;28;20093;-84
2022/12/15 15:17:08;;;;;;;5.80;2.15;;;2.50;99.90;;;;;;5002505;28;20038;-85
2022/12/15 15:20:34;;;;;;;5.75;2.50;;;2.50;99.90;;;;;;5076481;28;20052;-85
2022/12/15 15:23:27;;;;;;;4.40;1.95;;;2.50;99.90;;;;;;5076662;28;20062;-85
2022/12/15 15:26:34;;;;;;;8.70;2.38;;;2.40;99.90;;;;;;5096032;28;20040;-86
2022/12/15 15:29:52;;;;;;;10.57;2.10;;;2.40;99.90;;;;;;5076545;28;20136;-87
2022/12/15 15:33:12;;;;;;;5.88;1.75;;;2.00;99.90;;;;;;5076103;28;20040;-86
2022/12/15 15:36:28;;;;;;;;;;;;;;;;;;;;;
2022/12/15 15:39:09;;;;;;;3.67;1.40;;;2.10;99.90;;;;;;5044297;28;20037;-87
2022/12/15 15:41:36;;;;;;;2.80;1.45;;;2.00;99.90;;;;;;5036776;28;20033;-85
2022/12/15 15:44:15;;;;;;;5.28;1.98;;;2.00;99.90;;;;;;5036828;28;20045;-85
2022/12/15 15:46:48;;;;;;;5.00;1.77;;;1.90;99.90;;;;;;5053625;28;20144;-84
2022/12/15 15:49:18;;;;;;;6.57;1.77;;;1.90;99.90;;;;;;5036523;28;20045;-86
2022/12/15 15:51:45;;;;;;;3.40;1.50;;;1.80;99.90;;;;;;5037085;28;20056;-86
2022/12/15 15:54:23;;;;;;;3.97;1.75;;;1.80;99.90;;;;;;5053294;28;20056;-86
2022/12/15 15:56:53;;;;;;;4.35;1.67;;;1.70;99.90;;;;;;5053047;28;20053;-85
2022/12/15 15:59:23;;;;;;;3.42;1.58;;;1.70;99.90;;;;;;5052565;28;20052;-85
2022/12/15 16:01:56;;;;;;;4.18;2.20;;;1.70;99.90;;;;;;5035905;28;20176;-85
2022/12/15 16:04:25;;;;;;;5.97;2.10;;;1.90;99.90;;;;;;5051967;28;20167;-86
2022/12/15 16:06:55;;;;;;;3.70;1.70;;;1.60;99.90;;;;;;5059186;28;20098;-86
2022/12/15 16:09:29;;;;;;;6.70;1.80;;;2.20;99.90;;;;;;5076730;28;20484;-88
2022/12/15 16:11:58;;;;;;;6.30;2.20;;;1.50;99.90;;;;;;5077551;28;20048;-85
2022/12/15 16:14:30;;;;;;;4.10;1.85;;;2.30;99.90;;;;;;5077188;28;20054;-86
2022/12/15 16:17:03;;;;;;;4.80;1.60;;;1.40;99.90;;;;;;5095239;28;20048;-84
2022/12/15 16:19:32;;;;;;;5.05;1.50;;;1.40;99.90;;;;;;5092607;28;20047;-87
2022/12/15 16:21:59;;;;;;;7.90;2.03;;;1.30;99.90;;;;;;5094797;28;20040;-82
2022/12/15 16:24:26;;;;;;;5.70;1.88;;;1.30;99.90;;;;;;5094155;28;20036;-82
2022/12/15 16:26:55;;;;;;;3.97;1.63;;;1.20;99.90;;;;;;5093929;28;20058;-86
2022/12/15 16:29:25;;;;;;;4.70;1.80;;;1.30;99.90;;;;;;5094977;28;20152;-84
2022/12/15 16:31:52;;;;;;;4.03;2.17;;;1.10;99.90;;;;;;5095083;28;20055;-87
2022/12/15 16:34:23;;;;;;;3.33;1.52;;;1.10;99.90;;;;;;5076092;28;20043;-87
2022/12/15 16:36:49;;;;;;;4.30;1.75;;;1.00;99.90;;;;;;5076892;28;20505;-86
2022/12/15 16:39:26;;;;;;;4.90;2.08;;;1.50;99.90;;;;;;5094489;28;20040;-84
2022/12/15 16:41:55;;;;;;;4.32;1.70;;;0.90;99.90;;;;;;5094503;28;20055;-89
2022/12/15 16:44:22;;;;;;;5.88;1.80;;;0.90;99.90;;;;;;5094560;28;20040;-87
2022/12/15 16:46:48;;;;;;;5.53;2.47;;;0.90;99.90;;;;;;5076129;28;20393;-88
2022/12/15 16:49:15;;;;;;;5.50;2.55;;;0.90;99.90;;;;;;5089167;28;20043;-88
2022/12/15 16:51:45;;;;;;;6.32;2.35;;;1.70;99.90;;;;;;5094948;28;20040;-88
2022/12/15 16:54:19;;;;;;;6.05;2.55;;;0.90;99.90;;;;;;5078259;28;20036;-88
2022/12/15 16:56:50;;;;;;;10.63;2.80;;;0.90;99.90;;;;;;5093826;28;20047;-84
2022/12/15 16:59:20;;;;;;;6.65;2.90;;;0.80;99.90;;;;;;5094308;28;20480;-86
2022/12/15 17:01:50;;;;;;;8.10;3.42;;;0.90;99.90;;;;;;5094516;28;20036;-88
2022/12/15 17:04:17;;;;;;;5.70;3.30;;;0.80;99.90;;;;;;5075944;28;20131;-83
2022/12/15 17:06:44;;;;;;;5.88;2.90;;;0.80;99.90;;;;;;5094488;28;20044;-87
2022/12/15 17:09:22;;;;;;;8.00;3.88;;;2.00;99.90;;;;;;5094052;28;20492;-83
2022/12/15 17:11:49;;;;;;;9.85;4.30;;;0.80;99.90;;;;;;5093985;28;20119;-83
2022/12/15 17:14:16;;;;;;;9.88;3.88;;;0.90;99.90;;;;;;5093707;28;20047;-87
2022/12/15 17:16:42;;;;;;;9.00;4.03;;;1.00;99.90;;;;;;5093789;28;20619;-82
2022/12/15 17:19:12;;;;;;;9.38;4.05;;;1.00;99.90;;;;;;5080169;28;20051;-87
2022/12/15 17:21:46;;;;;;;12.43;4.38;;;1.00;99.90;;;;;;5076234;28;20048;-84
2022/12/15 17:24:19;;;;;;;8.18;4.07;;;0.90;99.90;;;;;;5076047;28;20082;-82
2022/12/15 17:26:46;;;;;;;10.43;4.03;;;1.00;99.90;;;;;;5075836;28;20040;-87
2022/12/15 17:29:24;;;;;;;7.00;3.13;;;1.00;99.90;;;;;;5093738;28;20047;-86
2022/12/15 17:31:52;;;;;;;12.93;4.30;;;1.00;99.90;;;;;;5092521;28;20396;-87
2022/12/15 17:34:31;;;;;;;8.65;4.70;;;2.00;99.90;;;;;;5093257;28;20066;-89
2022/12/15 17:37:28;;;;;;;7.43;3.90;;;1.00;99.90;;;;;;5092304;28;20512;-86
2022/12/15 17:40:56;;;;;;;;;;;;;;;;;;;;;
2022/12/15 17:44:18;;;;;;;;;;;;;;;;;;;;;
2022/12/15 17:47:46;;;;;;;6.32;3.05;;;1.00;99.90;;;;;;4991978;28;20156;-87
2022/12/15 17:50:58;;;;;;;;;;;;;;;;;;;;;
2022/12/15 17:54:40;;;;;;;;;;;;;;;;;;;;;
2022/12/15 17:58:08;;;;;;;;;;;;;;;;;;;;;
2022/12/15 18:01:25;;;;;;;12.10;4.75;;;0.90;99.90;;;;;;4997189;28;20067;-88
2022/12/15 18:04:09;;;;;;;14.60;5.55;;;1.00;99.90;;;;;;4975617;28;20054;-85
2022/12/15 18:06:49;;;;;;;10.98;5.00;;;0.90;99.90;;;;;;4975612;28;20054;-87
2022/12/15 18:09:54;;;;;;;14.30;5.22;;;0.90;99.90;;;;;;5007739;28;20117;-86
2022/12/15 18:12:54;;;;;;;10.82;5.22;;;0.90;99.90;;;;;;4934195;29;20532;-86
2022/12/15 18:16:14;;;;;;;10.88;5.65;;;0.90;99.90;;;;;;4938623;29;20509;-84
2022/12/15 18:19:28;;;;;;;;;;;;;;;;;;;;;
2022/12/15 18:22:44;;;;;;;;;;;;;;;;;;;;;
2022/12/15 18:26:18;;;;;;;11.65;4.43;;;0.70;99.90;;;;;;5011382;28;20045;-86
2022/12/15 18:29:32;;;;;;;7.55;3.40;;;0.70;99.90;;;;;;5007404;28;20050;-85
2022/12/15 18:32:31;;;;;;;7.10;3.25;;;0.60;99.90;;;;;;4995396;28;20094;-83
2022/12/15 18:35:38;;;;;;;5.85;3.03;;;0.50;99.90;;;;;;5005440;28;20515;-91
2022/12/15 18:38:52;;;;;;;8.90;3.50;;;0.50;99.90;;;;;;4986925;28;20061;-88
2022/12/15 18:42:10;;;;;;;7.03;2.45;;;0.80;99.90;;;;;;4993562;28;20136;-85
2022/12/15 18:45:24;;;;;;;;;;;;;;;;;;;;;
2022/12/15 18:48:27;;;;;;;7.40;3.30;;;0.40;99.90;;;;;;5011353;28;20054;-87
2022/12/15 18:51:38;;;;;;;7.43;3.72;;;0.40;99.90;;;;;;5032801;28;20128;-85
2022/12/15 18:55:00;;;;;;;;;;;;;;;;;;;;;
2022/12/15 18:58:16;;;;;;;11.60;6.07;;;0.40;99.90;;;;;;5029677;28;20503;-89
2022/12/15 19:01:40;;;;;;;16.10;7.05;;;0.40;99.90;;;;;;5030764;28;20049;-88
2022/12/15 19:04:29;;;;;;;12.90;6.15;;;0.40;99.90;;;;;;5030785;28;20150;-88
2022/12/15 19:07:44;;;;;;;;;;;;;;;;;;;;;
2022/12/15 19:11:10;;;;;;;;;;;;;;;;;;;;;
2022/12/15 19:28:16;;;;;;;12.32;6.57;;;0.40;99.90;;;;;;5072420;28;20122;-89
2022/12/15 19:31:13;;;;;;;13.95;6.88;;;0.40;99.90;;;;;;5071737;28;20537;-86
2022/12/15 19:34:12;;;;;;;10.43;6.03;;;0.40;99.90;;;;;;5055480;28;20420;-86
2022/12/15 19:37:39;;;;;;;13.35;6.60;;;-0.80;99.90;;;;;;5084936;28;20095;-84
2022/12/15 19:40:29;;;;;;;12.20;6.53;;;0.30;99.90;;;;;;5096028;28;20056;-89
2022/12/15 19:42:59;;;;;;;12.82;6.15;;;0.30;99.90;;;;;;5076052;28;20040;-86
2022/12/15 19:46:26;;;;;;;;;;;;;;;;;;;;;
2022/12/15 19:49:36;;;;;;;9.88;5.88;;;0.30;99.90;;;;;;5060544;28;20097;-86
2022/12/15 19:52:54;;;;;;;;;;;;;;;;;;;;;
2022/12/15 19:56:22;;;;;;;12.85;7.10;;;0.20;99.90;;;;;;5095690;28;20450;-87